sensor_id;sensor_type;location;lat;lon;timestamp;temperature;humidity
45729;DHT22;31439;53.512;10.206;2022-08-18T00:04:31;20.60;99.90
45729;DHT22;31439;53.512;10.206;2022-08-18T00:06:57;20.60;99.90
45729;DHT22;31439;53.512;10.206;2022-08-18T00:09:22;20.60;99.90
45729;DHT22;31439;53.512;10.206;2022-08-18T00:11:48;20.60;99.90
45729;DHT22;31439;53.512;10.206;2022-08-18T00:14:17;20.60;99.90
45729;DHT22;31439;53.512;10.206;2022-08-18T00:16:43;20.60;99.90
45729;DHT22;31439;53.512;10.206;2022-08-18T00:19:09;20.60;99.90
45729;DHT22;31439;53.512;10.206;2022-08-18T00:21:34;20.60;99.90
45729;DHT22;31439;53.512;10.206;2022-08-18T00:24:00;20.60;99.90
45729;DHT22;31439;53.512;10.206;2022-08-18T00:26:26;20.60;99.90
45729;DHT22;31439;53.512;10.206;2022-08-18T00:28:51;20.70;99.90
45729;DHT22;31439;53.512;10.206;2022-08-18T00:31:17;20.60;99.90
45729;DHT22;31439;53.512;10.206;2022-08-18T00:33:42;20.60;99.90
45729;DHT22;31439;53.512;10.206;2022-08-18T00:36:09;20.60;99.90
45729;DHT22;31439;53.512;10.206;2022-08-18T00:38:35;20.60;99.90
45729;DHT22;31439;53.512;10.206;2022-08-18T00:41:01;20.60;99.90
45729;DHT22;31439;53.512;10.206;2022-08-18T00:43:44;20.60;99.90
45729;DHT22;31439;53.512;10.206;2022-08-18T00:46:23;20.60;99.90
45729;DHT22;31439;53.512;10.206;2022-08-18T00:48:49;20.60;99.90
45729;DHT22;31439;53.512;10.206;2022-08-18T00:51:27;20.60;99.90
45729;DHT22;31439;53.512;10.206;2022-08-18T00:54:05;20.60;99.90
45729;DHT22;31439;53.512;10.206;2022-08-18T00:56:46;20.60;99.90
45729;DHT22;31439;53.512;10.206;2022-08-18T00:59:23;20.50;99.90
45729;DHT22;31439;53.512;10.206;2022-08-18T01:01:52;20.50;99.90
45729;DHT22;31439;53.512;10.206;2022-08-18T01:04:25;20.60;99.90
45729;DHT22;31439;53.512;10.206;2022-08-18T01:06:59;20.50;99.90
45729;DHT22;31439;53.512;10.206;2022-08-18T01:09:26;20.60;99.90
45729;DHT22;31439;53.512;10.206;2022-08-18T01:11:52;20.60;99.90
45729;DHT22;31439;53.512;10.206;2022-08-18T01:14:18;20.60;99.90
45729;DHT22;31439;53.512;10.206;2022-08-18T01:16:45;20.60;99.90
45729;DHT22;31439;53.512;10.206;2022-08-18T01:19:30;20.60;99.90
45729;DHT22;31439;53.512;10.206;2022-08-18T01:24:45;20.60;99.90
45729;DHT22;31439;53.512;10.206;2022-08-18T01:27:29;20.60;99.90
45729;DHT22;31439;53.512;10.206;2022-08-18T01:29:56;20.50;99.90
45729;DHT22;31439;53.512;10.206;2022-08-18T01:32:26;20.50;99.90
45729;DHT22;31439;53.512;10.206;2022-08-18T01:34:52;20.50;99.90
45729;DHT22;31439;53.512;10.206;2022-08-18T01:37:22;20.50;99.90
45729;DHT22;31439;53.512;10.206;2022-08-18T01:39:48;20.50;99.90
45729;DHT22;31439;53.512;10.206;2022-08-18T01:42:15;20.50;99.90
45729;DHT22;31439;53.512;10.206;2022-08-18T01:44:45;20.50;99.90
45729;DHT22;31439;53.512;10.206;2022-08-18T01:47:12;20.60;99.90
45729;DHT22;31439;53.512;10.206;2022-08-18T01:49:39;20.60;99.90
45729;DHT22;31439;53.512;10.206;2022-08-18T01:52:10;20.60;99.90
45729;DHT22;31439;53.512;10.206;2022-08-18T01:54:35;20.50;99.90
45729;DHT22;31439;53.512;10.206;2022-08-18T01:57:01;20.50;99.90
45729;DHT22;31439;53.512;10.206;2022-08-18T01:59:27;20.50;99.90
45729;DHT22;31439;53.512;10.206;2022-08-18T02:01:53;20.50;99.90
45729;DHT22;31439;53.512;10.206;2022-08-18T02:04:25;20.50;99.90
45729;DHT22;31439;53.512;10.206;2022-08-18T02:06:53;20.50;99.90
45729;DHT22;31439;53.512;10.206;2022-08-18T02:09:18;20.50;99.90
45729;DHT22;31439;53.512;10.206;2022-08-18T02:11:44;20.50;99.90
45729;DHT22;31439;53.512;10.206;2022-08-18T02:14:09;20.40;99.90
45729;DHT22;31439;53.512;10.206;2022-08-18T02:16:35;20.40;99.90
45729;DHT22;31439;53.512;10.206;2022-08-18T02:19:00;20.30;99.90
45729;DHT22;31439;53.512;10.206;2022-08-18T02:21:26;20.40;99.90
45729;DHT22;31439;53.512;10.206;2022-08-18T02:23:52;20.30;99.90
45729;DHT22;31439;53.512;10.206;2022-08-18T02:26:17;20.30;99.90
45729;DHT22;31439;53.512;10.206;2022-08-18T02:28:43;20.30;99.90
45729;DHT22;31439;53.512;10.206;2022-08-18T02:31:15;20.20;99.90
45729;DHT22;31439;53.512;10.206;2022-08-18T02:33:41;20.20;99.90
45729;DHT22;31439;53.512;10.206;2022-08-18T02:36:07;20.20;99.90
45729;DHT22;31439;53.512;10.206;2022-08-18T02:38:33;20.10;99.90
45729;DHT22;31439;53.512;10.206;2022-08-18T02:41:01;20.20;99.90
45729;DHT22;31439;53.512;10.206;2022-08-18T02:43:28;20.00;99.90
45729;DHT22;31439;53.512;10.206;2022-08-18T02:45:55;20.00;99.90
45729;DHT22;31439;53.512;10.206;2022-08-18T02:48:20;20.00;99.90
45729;DHT22;31439;53.512;10.206;2022-08-18T02:51:10;20.00;99.90
45729;DHT22;31439;53.512;10.206;2022-08-18T02:53:41;20.00;99.90
45729;DHT22;31439;53.512;10.206;2022-08-18T02:56:15;19.90;99.90
45729;DHT22;31439;53.512;10.206;2022-08-18T02:58:54;19.90;99.90
45729;DHT22;31439;53.512;10.206;2022-08-18T03:01:22;19.80;99.90
45729;DHT22;31439;53.512;10.206;2022-08-18T03:03:49;19.80;99.90
45729;DHT22;31439;53.512;10.206;2022-08-18T03:06:15;19.80;99.90
45729;DHT22;31439;53.512;10.206;2022-08-18T03:08:42;19.80;99.90
45729;DHT22;31439;53.512;10.206;2022-08-18T03:11:08;19.70;99.90
45729;DHT22;31439;53.512;10.206;2022-08-18T03:13:34;19.60;99.90
45729;DHT22;31439;53.512;10.206;2022-08-18T03:15:59;19.60;99.90
45729;DHT22;31439;53.512;10.206;2022-08-18T03:18:25;19.60;99.90
45729;DHT22;31439;53.512;10.206;2022-08-18T03:20:50;19.60;99.90
45729;DHT22;31439;53.512;10.206;2022-08-18T03:23:16;19.80;99.90
45729;DHT22;31439;53.512;10.206;2022-08-18T03:25:47;19.70;99.90
45729;DHT22;31439;53.512;10.206;2022-08-18T03:28:14;19.70;99.90
45729;DHT22;31439;53.512;10.206;2022-08-18T03:30:41;19.70;99.90
45729;DHT22;31439;53.512;10.206;2022-08-18T03:33:08;19.70;99.90
45729;DHT22;31439;53.512;10.206;2022-08-18T03:35:37;19.60;99.90
45729;DHT22;31439;53.512;10.206;2022-08-18T03:38:03;19.70;99.90
45729;DHT22;31439;53.512;10.206;2022-08-18T03:40:29;19.50;99.90
45729;DHT22;31439;53.512;10.206;2022-08-18T03:42:55;19.50;99.90
45729;DHT22;31439;53.512;10.206;2022-08-18T03:45:21;19.50;99.90
45729;DHT22;31439;53.512;10.206;2022-08-18T03:47:49;19.50;99.90
45729;DHT22;31439;53.512;10.206;2022-08-18T03:50:17;19.50;99.90
45729;DHT22;31439;53.512;10.206;2022-08-18T03:52:44;19.50;99.90
45729;DHT22;31439;53.512;10.206;2022-08-18T03:55:16;19.60;99.90
45729;DHT22;31439;53.512;10.206;2022-08-18T03:57:43;19.50;99.90
45729;DHT22;31439;53.512;10.206;2022-08-18T04:00:11;19.50;99.90
45729;DHT22;31439;53.512;10.206;2022-08-18T04:02:37;19.60;99.90
45729;DHT22;31439;53.512;10.206;2022-08-18T04:05:04;19.60;99.90
45729;DHT22;31439;53.512;10.206;2022-08-18T04:07:30;19.60;99.90
45729;DHT22;31439;53.512;10.206;2022-08-18T04:09:56;19.60;99.90
45729;DHT22;31439;53.512;10.206;2022-08-18T04:12:22;19.60;99.90
45729;DHT22;31439;53.512;10.206;2022-08-18T04:14:48;19.50;99.90
45729;DHT22;31439;53.512;10.206;2022-08-18T04:17:19;19.60;99.90
45729;DHT22;31439;53.512;10.206;2022-08-18T04:19:53;19.60;99.90
45729;DHT22;31439;53.512;10.206;2022-08-18T04:22:19;19.50;99.90
45729;DHT22;31439;53.512;10.206;2022-08-18T04:24:45;19.50;99.90
45729;DHT22;31439;53.512;10.206;2022-08-18T04:27:11;19.50;99.90
45729;DHT22;31439;53.512;10.206;2022-08-18T04:29:37;19.50;99.90
45729;DHT22;31439;53.512;10.206;2022-08-18T04:32:02;19.50;99.90
45729;DHT22;31439;53.512;10.206;2022-08-18T04:34:30;19.50;99.90
45729;DHT22;31439;53.512;10.206;2022-08-18T04:36:57;19.50;99.90
45729;DHT22;31439;53.512;10.206;2022-08-18T04:39:23;19.50;99.90
45729;DHT22;31439;53.512;10.206;2022-08-18T04:41:50;19.50;99.90
45729;DHT22;31439;53.512;10.206;2022-08-18T04:44:16;19.60;99.90
45729;DHT22;31439;53.512;10.206;2022-08-18T04:46:48;19.60;99.90
45729;DHT22;31439;53.512;10.206;2022-08-18T04:49:15;19.70;99.90
45729;DHT22;31439;53.512;10.206;2022-08-18T04:51:44;19.70;99.90
45729;DHT22;31439;53.512;10.206;2022-08-18T04:54:30;19.80;99.90
45729;DHT22;31439;53.512;10.206;2022-08-18T04:56:56;19.90;99.90
45729;DHT22;31439;53.512;10.206;2022-08-18T04:59:22;19.90;99.90
45729;DHT22;31439;53.512;10.206;2022-08-18T05:01:47;19.90;99.90
45729;DHT22;31439;53.512;10.206;2022-08-18T05:04:15;19.90;99.90
45729;DHT22;31439;53.512;10.206;2022-08-18T05:06:42;19.90;99.90
45729;DHT22;31439;53.512;10.206;2022-08-18T05:09:09;20.00;99.90
45729;DHT22;31439;53.512;10.206;2022-08-18T05:11:36;20.20;99.90
45729;DHT22;31439;53.512;10.206;2022-08-18T05:14:05;20.40;99.90
45729;DHT22;31439;53.512;10.206;2022-08-18T05:16:31;20.40;99.90
45729;DHT22;31439;53.512;10.206;2022-08-18T05:19:00;20.60;99.90
45729;DHT22;31439;53.512;10.206;2022-08-18T05:21:27;20.50;99.90
45729;DHT22;31439;53.512;10.206;2022-08-18T05:23:53;20.40;99.90
45729;DHT22;31439;53.512;10.206;2022-08-18T05:26:19;20.40;99.90
45729;DHT22;31439;53.512;10.206;2022-08-18T05:28:45;20.30;99.90
45729;DHT22;31439;53.512;10.206;2022-08-18T05:31:14;20.30;99.90
45729;DHT22;31439;53.512;10.206;2022-08-18T05:33:40;20.30;99.90
45729;DHT22;31439;53.512;10.206;2022-08-18T05:41:57;20.20;99.90
45729;DHT22;31439;53.512;10.206;2022-08-18T05:44:28;20.30;99.90
45729;DHT22;31439;53.512;10.206;2022-08-18T05:46:57;20.30;99.90
45729;DHT22;31439;53.512;10.206;2022-08-18T05:49:25;20.40;99.90
45729;DHT22;31439;53.512;10.206;2022-08-18T05:51:53;20.50;99.90
45729;DHT22;31439;53.512;10.206;2022-08-18T05:54:22;20.50;99.90
45729;DHT22;31439;53.512;10.206;2022-08-18T05:57:12;20.50;99.90
45729;DHT22;31439;53.512;10.206;2022-08-18T05:59:40;20.50;99.90
45729;DHT22;31439;53.512;10.206;2022-08-18T06:02:33;20.50;99.90
45729;DHT22;31439;53.512;10.206;2022-08-18T06:05:06;20.40;99.90
45729;DHT22;31439;53.512;10.206;2022-08-18T06:07:47;20.30;99.90
45729;DHT22;31439;53.512;10.206;2022-08-18T06:10:14;20.50;99.90
45729;DHT22;31439;53.512;10.206;2022-08-18T06:12:41;20.60;99.90
45729;DHT22;31439;53.512;10.206;2022-08-18T06:23:30;20.90;99.90
45729;DHT22;31439;53.512;10.206;2022-08-18T06:31:16;21.10;99.90
45729;DHT22;31439;53.512;10.206;2022-08-18T06:33:48;21.20;99.90
45729;DHT22;31439;53.512;10.206;2022-08-18T06:41:43;21.40;99.90
45729;DHT22;31439;53.512;10.206;2022-08-18T06:44:29;22.00;99.90
45729;DHT22;31439;53.512;10.206;2022-08-18T06:47:04;22.40;99.90
45729;DHT22;31439;53.512;10.206;2022-08-18T06:52:38;22.50;99.90
45729;DHT22;31439;53.512;10.206;2022-08-18T06:55:10;22.60;99.90
45729;DHT22;31439;53.512;10.206;2022-08-18T06:58:00;22.40;99.90
45729;DHT22;31439;53.512;10.206;2022-08-18T07:00:30;22.30;99.90
45729;DHT22;31439;53.512;10.206;2022-08-18T07:03:03;22.30;99.90
45729;DHT22;31439;53.512;10.206;2022-08-18T07:05:33;22.30;99.90
45729;DHT22;31439;53.512;10.206;2022-08-18T07:08:10;22.20;99.90
45729;DHT22;31439;53.512;10.206;2022-08-18T07:10:41;22.20;99.90
45729;DHT22;31439;53.512;10.206;2022-08-18T07:13:16;22.00;99.90
45729;DHT22;31439;53.512;10.206;2022-08-18T07:15:43;21.90;99.90
45729;DHT22;31439;53.512;10.206;2022-08-18T07:18:11;21.80;99.90
45729;DHT22;31439;53.512;10.206;2022-08-18T07:20:46;21.50;99.90
45729;DHT22;31439;53.512;10.206;2022-08-18T07:28:33;20.80;99.90
45729;DHT22;31439;53.512;10.206;2022-08-18T07:31:16;20.70;99.90
45729;DHT22;31439;53.512;10.206;2022-08-18T07:34:12;20.50;99.90
45729;DHT22;31439;53.512;10.206;2022-08-18T07:36:45;20.40;99.90
45729;DHT22;31439;53.512;10.206;2022-08-18T07:39:29;20.30;99.90
45729;DHT22;31439;53.512;10.206;2022-08-18T07:42:12;20.20;99.90
45729;DHT22;31439;53.512;10.206;2022-08-18T07:44:47;20.00;99.90
45729;DHT22;31439;53.512;10.206;2022-08-18T07:47:20;20.00;99.90
45729;DHT22;31439;53.512;10.206;2022-08-18T07:49:47;20.00;99.90
45729;DHT22;31439;53.512;10.206;2022-08-18T07:52:24;20.00;99.90
45729;DHT22;31439;53.512;10.206;2022-08-18T08:00:29;20.00;99.90
45729;DHT22;31439;53.512;10.206;2022-08-18T08:08:47;20.00;99.90
45729;DHT22;31439;53.512;10.206;2022-08-18T08:11:24;20.00;99.90
45729;DHT22;31439;53.512;10.206;2022-08-18T08:13:57;20.00;99.90
45729;DHT22;31439;53.512;10.206;2022-08-18T08:16:48;20.10;99.90
45729;DHT22;31439;53.512;10.206;2022-08-18T08:19:37;20.10;99.90
45729;DHT22;31439;53.512;10.206;2022-08-18T08:22:22;20.20;99.90
45729;DHT22;31439;53.512;10.206;2022-08-18T08:25:00;20.20;99.90
45729;DHT22;31439;53.512;10.206;2022-08-18T08:30:08;20.20;99.90
45729;DHT22;31439;53.512;10.206;2022-08-18T08:35:20;20.20;99.90
45729;DHT22;31439;53.512;10.206;2022-08-18T08:37:52;20.20;99.90
45729;DHT22;31439;53.512;10.206;2022-08-18T08:40:25;20.20;99.90
45729;DHT22;31439;53.512;10.206;2022-08-18T08:43:00;20.30;99.90
45729;DHT22;31439;53.512;10.206;2022-08-18T08:45:33;20.30;99.90
45729;DHT22;31439;53.512;10.206;2022-08-18T08:48:06;20.30;99.90
45729;DHT22;31439;53.512;10.206;2022-08-18T08:51:00;20.40;99.90
45729;DHT22;31439;53.512;10.206;2022-08-18T08:53:28;20.30;99.90
45729;DHT22;31439;53.512;10.206;2022-08-18T08:56:05;20.40;99.90
45729;DHT22;31439;53.512;10.206;2022-08-18T09:04:23;20.40;99.90
45729;DHT22;31439;53.512;10.206;2022-08-18T09:07:21;20.40;99.90
45729;DHT22;31439;53.512;10.206;2022-08-18T09:23:50;20.80;99.90
45729;DHT22;31439;53.512;10.206;2022-08-18T09:26:40;21.00;99.90
45729;DHT22;31439;53.512;10.206;2022-08-18T09:31:37;21.10;99.90
45729;DHT22;31439;53.512;10.206;2022-08-18T09:34:33;21.10;99.90
45729;DHT22;31439;53.512;10.206;2022-08-18T09:37:10;21.20;99.90
45729;DHT22;31439;53.512;10.206;2022-08-18T09:39:48;21.40;99.90
45729;DHT22;31439;53.512;10.206;2022-08-18T09:42:49;21.70;99.90
45729;DHT22;31439;53.512;10.206;2022-08-18T09:48:02;21.80;99.90
45729;DHT22;31439;53.512;10.206;2022-08-18T09:56:16;22.10;99.90
45729;DHT22;31439;53.512;10.206;2022-08-18T09:58:53;22.30;99.90
45729;DHT22;31439;53.512;10.206;2022-08-18T10:01:32;22.30;99.90
45729;DHT22;31439;53.512;10.206;2022-08-18T10:06:41;22.60;99.90
45729;DHT22;31439;53.512;10.206;2022-08-18T10:09:31;22.70;99.90
45729;DHT22;31439;53.512;10.206;2022-08-18T10:12:31;22.90;99.90
45729;DHT22;31439;53.512;10.206;2022-08-18T10:15:27;22.50;99.90
45729;DHT22;31439;53.512;10.206;2022-08-18T10:18:01;22.20;99.90
45729;DHT22;31439;53.512;10.206;2022-08-18T10:21:10;22.10;99.90
45729;DHT22;31439;53.512;10.206;2022-08-18T10:29:10;22.20;99.90
45729;DHT22;31439;53.512;10.206;2022-08-18T10:37:28;22.30;99.90
45729;DHT22;31439;53.512;10.206;2022-08-18T10:42:39;22.40;99.90
45729;DHT22;31439;53.512;10.206;2022-08-18T10:45:14;22.50;99.90
45729;DHT22;31439;53.512;10.206;2022-08-18T10:47:43;22.60;99.90
45729;DHT22;31439;53.512;10.206;2022-08-18T10:50:19;22.70;99.90
45729;DHT22;31439;53.512;10.206;2022-08-18T10:55:40;22.80;99.90
45729;DHT22;31439;53.512;10.206;2022-08-18T11:01:15;23.10;99.90
45729;DHT22;31439;53.512;10.206;2022-08-18T11:06:26;23.20;99.90
45729;DHT22;31439;53.512;10.206;2022-08-18T11:08:59;23.20;99.90
45729;DHT22;31439;53.512;10.206;2022-08-18T11:11:39;23.00;99.90
45729;DHT22;31439;53.512;10.206;2022-08-18T11:16:46;23.50;99.90
45729;DHT22;31439;53.512;10.206;2022-08-18T11:19:15;23.40;99.90
45729;DHT22;31439;53.512;10.206;2022-08-18T11:21:45;23.30;99.90
45729;DHT22;31439;53.512;10.206;2022-08-18T11:27:00;23.10;99.90
45729;DHT22;31439;53.512;10.206;2022-08-18T11:29:37;23.00;99.90
45729;DHT22;31439;53.512;10.206;2022-08-18T11:34:51;23.00;99.90
45729;DHT22;31439;53.512;10.206;2022-08-18T11:40:09;23.30;99.90
45729;DHT22;31439;53.512;10.206;2022-08-18T11:42:38;23.30;99.90
45729;DHT22;31439;53.512;10.206;2022-08-18T11:45:18;23.40;99.90
45729;DHT22;31439;53.512;10.206;2022-08-18T11:50:29;23.40;99.90
45729;DHT22;31439;53.512;10.206;2022-08-18T11:53:04;23.40;99.90
45729;DHT22;31439;53.512;10.206;2022-08-18T11:55:35;23.50;99.90
45729;DHT22;31439;53.512;10.206;2022-08-18T11:58:02;23.60;99.90
45729;DHT22;31439;53.512;10.206;2022-08-18T12:00:40;23.50;99.90
45729;DHT22;31439;53.512;10.206;2022-08-18T12:03:18;23.60;99.90
45729;DHT22;31439;53.512;10.206;2022-08-18T12:05:57;23.60;99.90
45729;DHT22;31439;53.512;10.206;2022-08-18T12:11:21;23.70;99.90
45729;DHT22;31439;53.512;10.206;2022-08-18T12:14:00;23.70;99.90
45729;DHT22;31439;53.512;10.206;2022-08-18T12:16:38;23.90;99.90
45729;DHT22;31439;53.512;10.206;2022-08-18T12:19:07;24.10;99.90
45729;DHT22;31439;53.512;10.206;2022-08-18T12:21:41;24.10;99.90
45729;DHT22;31439;53.512;10.206;2022-08-18T12:24:19;24.10;99.90
45729;DHT22;31439;53.512;10.206;2022-08-18T12:26:46;24.00;99.90
45729;DHT22;31439;53.512;10.206;2022-08-18T12:29:12;24.20;99.90
45729;DHT22;31439;53.512;10.206;2022-08-18T12:31:38;24.20;99.90
45729;DHT22;31439;53.512;10.206;2022-08-18T12:34:07;24.20;99.90
45729;DHT22;31439;53.512;10.206;2022-08-18T12:36:34;24.30;99.90
45729;DHT22;31439;53.512;10.206;2022-08-18T12:39:00;24.60;99.90
45729;DHT22;31439;53.512;10.206;2022-08-18T12:41:26;24.90;99.90
45729;DHT22;31439;53.512;10.206;2022-08-18T12:43:51;25.00;99.90
45729;DHT22;31439;53.512;10.206;2022-08-18T12:46:18;25.20;99.90
45729;DHT22;31439;53.512;10.206;2022-08-18T12:48:44;25.20;99.90
45729;DHT22;31439;53.512;10.206;2022-08-18T12:51:10;25.40;99.90
45729;DHT22;31439;53.512;10.206;2022-08-18T12:53:37;25.70;99.90
45729;DHT22;31439;53.512;10.206;2022-08-18T12:56:02;25.80;99.90
45729;DHT22;31439;53.512;10.206;2022-08-18T12:58:29;26.10;99.90
45729;DHT22;31439;53.512;10.206;2022-08-18T13:00:57;26.10;99.90
45729;DHT22;31439;53.512;10.206;2022-08-18T13:03:23;25.70;99.90
45729;DHT22;31439;53.512;10.206;2022-08-18T13:05:51;25.60;99.90
45729;DHT22;31439;53.512;10.206;2022-08-18T13:08:20;25.40;99.90
45729;DHT22;31439;53.512;10.206;2022-08-18T13:10:49;25.30;99.90
45729;DHT22;31439;53.512;10.206;2022-08-18T13:13:17;25.20;99.90
45729;DHT22;31439;53.512;10.206;2022-08-18T13:15:44;25.20;99.90
45729;DHT22;31439;53.512;10.206;2022-08-18T13:18:13;25.40;99.90
45729;DHT22;31439;53.512;10.206;2022-08-18T13:20:40;25.40;99.90
45729;DHT22;31439;53.512;10.206;2022-08-18T13:23:06;25.60;99.90
45729;DHT22;31439;53.512;10.206;2022-08-18T13:25:32;25.70;99.90
45729;DHT22;31439;53.512;10.206;2022-08-18T13:27:57;25.70;99.90
45729;DHT22;31439;53.512;10.206;2022-08-18T13:30:23;25.70;99.90
45729;DHT22;31439;53.512;10.206;2022-08-18T13:32:49;25.70;99.90
45729;DHT22;31439;53.512;10.206;2022-08-18T13:35:18;25.70;99.90
45729;DHT22;31439;53.512;10.206;2022-08-18T13:37:44;25.60;99.90
45729;DHT22;31439;53.512;10.206;2022-08-18T13:40:10;25.70;99.90
45729;DHT22;31439;53.512;10.206;2022-08-18T13:42:45;25.80;99.90
45729;DHT22;31439;53.512;10.206;2022-08-18T13:45:13;25.80;99.90
45729;DHT22;31439;53.512;10.206;2022-08-18T13:47:39;25.80;99.90
45729;DHT22;31439;53.512;10.206;2022-08-18T13:50:05;25.80;99.90
45729;DHT22;31439;53.512;10.206;2022-08-18T13:52:33;25.80;99.90
45729;DHT22;31439;53.512;10.206;2022-08-18T13:54:59;25.80;99.90
45729;DHT22;31439;53.512;10.206;2022-08-18T13:57:24;25.80;99.90
45729;DHT22;31439;53.512;10.206;2022-08-18T13:59:50;25.80;99.90
45729;DHT22;31439;53.512;10.206;2022-08-18T14:02:15;26.00;99.90
45729;DHT22;31439;53.512;10.206;2022-08-18T14:04:41;26.00;99.90
45729;DHT22;31439;53.512;10.206;2022-08-18T14:07:07;26.10;99.90
45729;DHT22;31439;53.512;10.206;2022-08-18T14:09:36;26.10;99.90
45729;DHT22;31439;53.512;10.206;2022-08-18T14:12:04;26.10;99.90
45729;DHT22;31439;53.512;10.206;2022-08-18T14:14:30;26.00;99.90
45729;DHT22;31439;53.512;10.206;2022-08-18T14:16:56;25.90;99.90
45729;DHT22;31439;53.512;10.206;2022-08-18T14:19:22;25.90;99.90
45729;DHT22;31439;53.512;10.206;2022-08-18T14:22:06;25.90;99.90
45729;DHT22;31439;53.512;10.206;2022-08-18T14:24:50;25.70;99.90
45729;DHT22;31439;53.512;10.206;2022-08-18T14:27:37;25.60;99.90
45729;DHT22;31439;53.512;10.206;2022-08-18T14:30:08;25.70;99.90
45729;DHT22;31439;53.512;10.206;2022-08-18T14:32:34;25.60;99.90
45729;DHT22;31439;53.512;10.206;2022-08-18T14:35:06;25.60;99.90
45729;DHT22;31439;53.512;10.206;2022-08-18T14:37:36;25.70;99.90
45729;DHT22;31439;53.512;10.206;2022-08-18T14:40:02;25.60;99.90
45729;DHT22;31439;53.512;10.206;2022-08-18T14:42:28;25.50;99.90
45729;DHT22;31439;53.512;10.206;2022-08-18T14:44:54;25.50;99.90
45729;DHT22;31439;53.512;10.206;2022-08-18T14:47:21;25.60;99.90
45729;DHT22;31439;53.512;10.206;2022-08-18T14:49:47;25.60;99.90
45729;DHT22;31439;53.512;10.206;2022-08-18T14:52:13;25.50;99.90
45729;DHT22;31439;53.512;10.206;2022-08-18T14:54:39;25.60;99.90
45729;DHT22;31439;53.512;10.206;2022-08-18T14:57:05;25.60;99.90
45729;DHT22;31439;53.512;10.206;2022-08-18T14:59:33;25.60;99.90
45729;DHT22;31439;53.512;10.206;2022-08-18T15:01:59;25.60;99.90
45729;DHT22;31439;53.512;10.206;2022-08-18T15:04:25;25.60;99.90
45729;DHT22;31439;53.512;10.206;2022-08-18T15:06:52;25.70;99.90
45729;DHT22;31439;53.512;10.206;2022-08-18T15:09:18;25.70;99.90
45729;DHT22;31439;53.512;10.206;2022-08-18T15:11:44;25.80;99.90
45729;DHT22;31439;53.512;10.206;2022-08-18T15:14:10;25.80;99.90
45729;DHT22;31439;53.512;10.206;2022-08-18T15:16:35;25.70;99.90
45729;DHT22;31439;53.512;10.206;2022-08-18T15:19:02;25.70;99.90
45729;DHT22;31439;53.512;10.206;2022-08-18T15:21:29;25.70;99.90
45729;DHT22;31439;53.512;10.206;2022-08-18T15:24:14;25.70;99.90
45729;DHT22;31439;53.512;10.206;2022-08-18T15:26:59;25.60;99.90
45729;DHT22;31439;53.512;10.206;2022-08-18T15:29:27;25.60;99.90
45729;DHT22;31439;53.512;10.206;2022-08-18T15:31:53;25.60;99.90
45729;DHT22;31439;53.512;10.206;2022-08-18T15:34:18;25.70;99.90
45729;DHT22;31439;53.512;10.206;2022-08-18T15:36:44;25.70;99.90
45729;DHT22;31439;53.512;10.206;2022-08-18T15:39:11;25.70;99.90
45729;DHT22;31439;53.512;10.206;2022-08-18T15:41:40;25.70;99.90
45729;DHT22;31439;53.512;10.206;2022-08-18T15:44:07;25.70;99.90
45729;DHT22;31439;53.512;10.206;2022-08-18T15:46:35;25.70;99.90
45729;DHT22;31439;53.512;10.206;2022-08-18T15:49:02;25.60;99.90
45729;DHT22;31439;53.512;10.206;2022-08-18T15:51:31;25.60;99.90
45729;DHT22;31439;53.512;10.206;2022-08-18T15:53:56;25.60;99.90
45729;DHT22;31439;53.512;10.206;2022-08-18T15:56:24;25.50;99.90
45729;DHT22;31439;53.512;10.206;2022-08-18T15:58:50;25.50;99.90
45729;DHT22;31439;53.512;10.206;2022-08-18T16:01:17;25.40;99.90
45729;DHT22;31439;53.512;10.206;2022-08-18T16:03:46;25.40;99.90
45729;DHT22;31439;53.512;10.206;2022-08-18T16:06:14;25.30;99.90
45729;DHT22;31439;53.512;10.206;2022-08-18T16:08:40;25.30;99.90
45729;DHT22;31439;53.512;10.206;2022-08-18T16:11:12;25.20;99.90
45729;DHT22;31439;53.512;10.206;2022-08-18T16:13:38;25.20;99.90
45729;DHT22;31439;53.512;10.206;2022-08-18T16:16:13;25.10;99.90
45729;DHT22;31439;53.512;10.206;2022-08-18T16:18:40;25.00;99.90
45729;DHT22;31439;53.512;10.206;2022-08-18T16:21:08;25.00;99.90
45729;DHT22;31439;53.512;10.206;2022-08-18T16:23:41;25.00;99.90
45729;DHT22;31439;53.512;10.206;2022-08-18T16:26:09;24.90;99.90
45729;DHT22;31439;53.512;10.206;2022-08-18T16:28:37;24.90;99.90
45729;DHT22;31439;53.512;10.206;2022-08-18T16:31:03;24.80;99.90
45729;DHT22;31439;53.512;10.206;2022-08-18T16:33:30;24.80;99.90
45729;DHT22;31439;53.512;10.206;2022-08-18T16:36:02;24.80;99.90
45729;DHT22;31439;53.512;10.206;2022-08-18T16:38:28;24.70;99.90
45729;DHT22;31439;53.512;10.206;2022-08-18T16:40:54;24.70;99.90
45729;DHT22;31439;53.512;10.206;2022-08-18T16:43:19;24.70;99.90
45729;DHT22;31439;53.512;10.206;2022-08-18T16:45:45;24.70;99.90
45729;DHT22;31439;53.512;10.206;2022-08-18T16:48:11;24.70;99.90
45729;DHT22;31439;53.512;10.206;2022-08-18T16:50:37;24.60;99.90
45729;DHT22;31439;53.512;10.206;2022-08-18T16:53:07;24.70;99.90
45729;DHT22;31439;53.512;10.206;2022-08-18T16:55:33;24.70;99.90
45729;DHT22;31439;53.512;10.206;2022-08-18T16:57:59;24.80;99.90
45729;DHT22;31439;53.512;10.206;2022-08-18T17:00:43;24.80;99.90
45729;DHT22;31439;53.512;10.206;2022-08-18T17:03:28;24.80;99.90
45729;DHT22;31439;53.512;10.206;2022-08-18T17:06:14;24.90;99.90
45729;DHT22;31439;53.512;10.206;2022-08-18T17:08:41;24.90;99.90
45729;DHT22;31439;53.512;10.206;2022-08-18T17:11:11;24.90;99.90
45729;DHT22;31439;53.512;10.206;2022-08-18T17:13:38;24.90;99.90
45729;DHT22;31439;53.512;10.206;2022-08-18T17:16:05;24.90;99.90
45729;DHT22;31439;53.512;10.206;2022-08-18T17:18:32;24.90;99.90
45729;DHT22;31439;53.512;10.206;2022-08-18T17:21:05;24.90;99.90
45729;DHT22;31439;53.512;10.206;2022-08-18T17:23:32;24.90;99.90
45729;DHT22;31439;53.512;10.206;2022-08-18T17:25:58;24.90;99.90
45729;DHT22;31439;53.512;10.206;2022-08-18T17:28:48;24.80;99.90
45729;DHT22;31439;53.512;10.206;2022-08-18T17:31:15;24.70;99.90
45729;DHT22;31439;53.512;10.206;2022-08-18T17:33:42;24.60;99.90
45729;DHT22;31439;53.512;10.206;2022-08-18T17:36:15;24.60;99.90
45729;DHT22;31439;53.512;10.206;2022-08-18T17:38:56;24.50;99.90
45729;DHT22;31439;53.512;10.206;2022-08-18T17:41:23;24.40;99.90
45729;DHT22;31439;53.512;10.206;2022-08-18T17:43:50;24.40;99.90